Time;durP1;ratioP1;P1;durP2;ratioP2;P2;SDS_P1;SDS_P2;PMS_P1;PMS_P2;Temp;Humidity;BMP_temperature;BMP_pressure;BME280_temperature;BME280_humidity;BME280_pressure;Samples;Min_cycle;Max_cycle;Signal;HPM_P1;HPM_P2
2020/12/19 00:02:01;;;;;;;30.33;16.95;;;;;;;3.78;77.82;101967.03;5071453;28;20025;-73
2020/12/19 00:04:26;;;;;;;26.70;17.33;;;;;;;3.87;77.55;101962.72;5070747;28;20170;-73
2020/12/19 00:06:51;;;;;;;29.50;18.25;;;;;;;3.95;77.01;101968.47;5071358;28;20071;-73
2020/12/19 00:09:17;;;;;;;29.35;18.02;;;;;;;3.79;77.21;101962.03;5059567;28;20044;-73
2020/12/19 00:11:43;;;;;;;29.00;18.25;;;;;;;3.81;77.71;101967.28;5056978;28;20024;-73
2020/12/19 00:14:08;;;;;;;25.75;16.70;;;;;;;3.84;77.38;101962.47;5071259;28;20032;-73
2020/12/19 00:16:34;;;;;;;31.40;17.73;;;;;;;3.70;77.19;101959.56;5061022;28;20384;-74
2020/12/19 00:18:59;;;;;;;26.02;16.05;;;;;;;3.67;77.85;101966.94;5060711;28;20031;-75
2020/12/19 00:21:32;;;;;;;33.00;20.40;;;;;;;3.73;77.79;101972.59;5071065;28;20035;-76
2020/12/19 00:23:57;;;;;;;31.90;18.45;;;;;;;3.70;77.64;101959.56;5070831;28;20036;-74
2020/12/19 00:26:31;;;;;;;27.23;17.15;;;;;;;3.73;77.72;101970.03;5070909;28;20498;-75
2020/12/19 00:28:56;;;;;;;29.80;18.02;;;;;;;3.79;78.04;101971.34;5070918;28;20103;-73
2020/12/19 00:31:25;;;;;;;30.90;17.58;;;;;;;3.83;77.53;101971.75;5065070;28;20107;-75
2020/12/19 00:33:51;;;;;;;31.60;17.08;;;;;;;3.85;77.50;101970.25;5070555;28;20024;-73
2020/12/19 00:36:17;;;;;;;28.40;17.05;;;;;;;3.71;77.14;101940.94;5070297;28;20112;-73
2020/12/19 00:38:42;;;;;;;30.40;17.17;;;;;;;3.71;77.55;101960.44;5070623;28;20080;-73
2020/12/19 00:41:08;;;;;;;34.92;19.75;;;;;;;3.61;78.24;101974.06;5070614;28;20037;-73
2020/12/19 00:43:35;;;;;;;28.42;18.25;;;;;;;3.65;78.26;101967.56;5052943;28;20045;-73
2020/12/19 00:46:00;;;;;;;28.15;17.38;;;;;;;3.76;78.17;101976.19;5070970;28;20500;-73
2020/12/19 00:48:26;;;;;;;29.45;19.45;;;;;;;3.75;78.10;101965.09;5070442;28;20028;-76
2020/12/19 00:50:51;;;;;;;27.60;17.65;;;;;;;3.69;78.04;101974.78;5052796;28;20101;-73
2020/12/19 00:53:16;;;;;;;32.47;20.48;;;;;;;3.55;78.85;101968.41;5070651;28;20025;-73
2020/12/19 00:55:43;;;;;;;29.10;19.15;;;;;;;3.52;78.93;101975.81;5073954;28;20031;-73
2020/12/19 00:58:08;;;;;;;31.35;19.85;;;;;;;3.55;79.15;101979.53;5074650;28;20016;-73
2020/12/19 01:00:34;;;;;;;32.70;20.98;;;;;;;3.61;79.66;101968.94;5032060;28;20110;-73
2020/12/19 01:02:59;;;;;;;33.83;21.77;;;;;;;3.68;79.14;101968.75;5032161;28;20600;-73
2020/12/19 01:05:24;;;;;;;30.17;20.00;;;;;;;3.69;79.10;101972.22;5031846;28;20041;-73
2020/12/19 01:07:50;;;;;;;45.25;21.95;;;;;;;3.76;78.96;101976.19;5015390;28;20095;-73
2020/12/19 01:10:15;;;;;;;33.58;20.63;;;;;;;3.74;79.06;101965.84;5015475;28;20037;-73
2020/12/19 01:12:41;;;;;;;34.75;22.35;;;;;;;3.83;78.90;101969.19;5032084;28;20033;-73
2020/12/19 01:15:07;;;;;;;32.38;19.40;;;;;;;3.90;78.69;101973.22;5031731;28;20480;-74
2020/12/19 01:17:33;;;;;;;34.25;20.10;;;;;;;3.90;78.66;101965.56;5031917;28;20033;-73
2020/12/19 01:19:59;;;;;;;30.50;19.10;;;;;;;3.98;78.79;101971.31;5031775;28;20041;-73
2020/12/19 01:22:25;;;;;;;29.85;18.73;;;;;;;3.79;79.10;101964.59;5011374;28;21220;-73
2020/12/19 01:24:50;;;;;;;31.80;19.38;;;;;;;3.93;78.87;101972.59;5011886;28;20087;-73
2020/12/19 01:27:16;;;;;;;29.58;18.05;;;;;;;3.97;78.42;101972.97;5011814;28;20116;-73
2020/12/19 01:29:41;;;;;;;30.42;17.65;;;;;;;3.78;78.69;101951.69;5012111;28;20026;-73
2020/12/19 01:32:07;;;;;;;29.50;18.10;;;;;;;3.73;79.25;101964.94;5041031;28;20059;-76
2020/12/19 01:34:32;;;;;;;27.02;18.30;;;;;;;3.63;80.01;101958.91;5051581;28;20041;-76
2020/12/19 01:36:58;;;;;;;31.67;18.60;;;;;;;3.66;79.73;101956.59;5051028;28;20141;-75
2020/12/19 01:39:23;;;;;;;31.90;18.50;;;;;;;3.70;79.76;101951.00;5034415;28;20029;-75
2020/12/19 01:41:52;;;;;;;30.70;17.92;;;;;;;3.79;79.59;101961.13;5034656;28;20028;-75
2020/12/19 01:44:18;;;;;;;29.90;19.05;;;;;;;3.81;79.59;101957.06;5051093;28;20036;-73
2020/12/19 01:46:56;;;;;;;27.33;17.02;;;;;;;3.86;79.45;101960.91;5051454;28;20044;-73
2020/12/19 01:49:27;;;;;;;33.03;18.45;;;;;;;3.87;79.09;101949.94;5034214;28;20062;-73
2020/12/19 01:51:57;;;;;;;28.17;18.17;;;;;;;3.91;79.04;101953.66;5034567;28;20410;-73
2020/12/19 01:54:23;;;;;;;;;;;;;;;3.97;79.16;101955.06;5051537;28;20037;-73
2020/12/19 01:56:52;;;;;;;33.55;18.52;;;;;;;3.89;79.07;101956.97;5051231;28;19920;-73
2020/12/19 01:59:18;;;;;;;32.88;18.63;;;;;;;3.82;80.01;101963.97;5055644;28;20041;-73
2020/12/19 02:01:48;;;;;;;33.47;18.17;;;;;;;3.74;79.26;101935.19;5073116;28;20563;-76
2020/12/19 02:04:14;;;;;;;30.80;19.50;;;;;;;3.89;79.36;101953.53;5072722;28;20040;-73
2020/12/19 02:06:47;;;;;;;33.67;21.27;;;;;;;3.94;79.71;101954.81;5054226;28;20501;-73
2020/12/19 02:09:13;;;;;;;36.38;21.00;;;;;;;3.98;79.28;101956.88;5051981;28;20407;-73
2020/12/19 02:11:41;;;;;;;55.03;34.67;;;;;;;4.00;79.42;101955.38;5063644;28;20020;-73
2020/12/19 02:14:08;;;;;;;33.83;21.27;;;;;;;3.77;79.56;101915.00;5050493;28;20435;-73
2020/12/19 02:16:34;;;;;;;32.95;20.90;;;;;;;4.09;78.91;101960.38;5050203;28;20507;-75
2020/12/19 02:18:59;;;;;;;29.60;19.60;;;;;;;3.93;79.76;101962.38;5050481;28;20067;-73
2020/12/19 02:21:25;;;;;;;30.30;19.27;;;;;;;3.90;79.38;101942.56;5050683;28;20092;-73
2020/12/19 02:23:52;;;;;;;33.28;21.00;;;;;;;3.85;79.20;101949.81;5033848;28;20037;-75
2020/12/19 02:26:17;;;;;;;35.40;22.42;;;;;;;3.75;80.17;101946.28;5050566;28;20037;-73
2020/12/19 02:28:43;;;;;;;39.63;21.95;;;;;;;3.85;80.02;101949.81;5050504;28;20446;-73
2020/12/19 02:31:08;;;;;;;33.38;21.80;;;;;;;3.96;79.68;101962.63;5050029;28;20124;-73
2020/12/19 02:33:34;;;;;;;38.40;22.23;;;;;;;3.88;79.71;101949.19;5010502;28;20060;-73
2020/12/19 02:35:59;;;;;;;39.83;23.58;;;;;;;3.89;79.63;101956.09;5010586;28;20038;-73
2020/12/19 02:38:25;;;;;;;35.05;22.25;;;;;;;3.79;79.54;101933.94;5010371;28;20041;-72
2020/12/19 02:40:50;;;;;;;37.10;23.05;;;;;;;3.99;79.30;101952.69;4999108;28;20497;-73
2020/12/19 02:43:15;;;;;;;36.42;23.65;;;;;;;3.96;79.24;101958.44;4990696;28;20057;-73
2020/12/19 02:45:41;;;;;;;37.13;23.05;;;;;;;3.98;79.44;101959.44;5000096;28;20042;-73
2020/12/19 02:48:06;;;;;;;36.97;23.02;;;;;;;3.79;79.49;101918.63;5010419;28;20440;-73
2020/12/19 02:50:32;;;;;;;37.47;23.95;;;;;;;3.97;79.34;101941.41;4994011;28;20160;-73
2020/12/19 02:52:57;;;;;;;39.40;24.02;;;;;;;3.98;79.12;101956.00;4993945;28;20157;-73
2020/12/19 02:55:23;;;;;;;39.67;24.17;;;;;;;3.94;79.18;101947.16;5009543;28;20030;-72
2020/12/19 02:57:48;;;;;;;41.35;23.30;;;;;;;3.88;79.36;101944.06;5009230;28;20046;-71
2020/12/19 03:00:13;;;;;;;35.45;23.00;;;;;;;3.79;80.27;101949.25;5026577;28;20033;-73
2020/12/19 03:02:39;;;;;;;41.67;23.75;;;;;;;3.77;80.83;101953.34;4994649;28;20034;-79
2020/12/19 03:05:04;;;;;;;38.58;23.30;;;;;;;3.64;80.89;101953.00;5018440;28;20487;-73
2020/12/19 03:07:30;;;;;;;43.08;25.00;;;;;;;3.60;81.38;101956.97;5035637;28;20069;-75
2020/12/19 03:09:55;;;;;;;37.60;23.08;;;;;;;3.65;81.42;101955.72;5035896;28;20025;-74
2020/12/19 03:12:21;;;;;;;40.55;25.10;;;;;;;3.78;81.23;101964.47;5034104;28;20037;-75
2020/12/19 03:14:46;;;;;;;41.03;24.92;;;;;;;3.83;81.06;101960.66;5048537;28;20044;-70
2020/12/19 03:17:12;;;;;;;37.10;23.38;;;;;;;3.80;80.54;101939.94;5052602;28;20041;-74
2020/12/19 03:19:37;;;;;;;39.65;23.15;;;;;;;3.87;80.56;101962.72;5052226;28;20025;-76
2020/12/19 03:22:03;;;;;;;40.88;25.15;;;;;;;3.51;80.60;101895.72;5052419;28;20443;-76
2020/12/19 03:24:28;;;;;;;39.97;22.92;;;;;;;3.66;80.81;101942.16;5051959;28;20120;-77
2020/12/19 03:26:53;;;;;;;43.83;26.17;;;;;;;3.62;81.82;101957.97;5034467;28;20025;-71
2020/12/19 03:29:19;;;;;;;38.67;23.92;;;;;;;3.49;82.30;101956.00;5052120;28;20364;-74
2020/12/19 03:31:44;;;;;;;44.83;25.40;;;;;;;3.22;83.04;101927.22;5052296;28;20449;-73
2020/12/19 03:34:10;;;;;;;45.27;24.30;;;;;;;3.30;83.83;101971.34;5052209;28;20398;-72
2020/12/19 03:36:35;;;;;;;41.77;25.73;;;;;;;3.20;84.65;101969.59;5052726;28;20055;-75
2020/12/19 03:39:01;;;;;;;39.63;24.07;;;;;;;3.17;84.98;101970.97;5053557;28;20076;-73
2020/12/19 03:41:26;;;;;;;41.47;24.90;;;;;;;3.15;85.46;101970.81;5034118;28;20106;-76
2020/12/19 03:43:52;;;;;;;43.03;25.50;;;;;;;3.10;85.96;101966.94;5052147;28;20434;-75
2020/12/19 03:46:17;;;;;;;40.33;25.30;;;;;;;3.26;85.93;101969.25;5051629;28;20056;-71
2020/12/19 03:48:42;;;;;;;42.23;24.17;;;;;;;3.40;85.29;101973.94;5051938;28;20068;-75
2020/12/19 03:51:09;;;;;;;39.13;22.77;;;;;;;3.28;85.04;101974.47;5051614;28;20033;-75
2020/12/19 03:53:35;;;;;;;40.45;22.40;;;;;;;2.95;86.87;101963.88;5047269;28;20059;-76
2020/12/19 03:56:00;;;;;;;34.00;20.10;;;;;;;2.72;88.10;101972.00;5049577;28;20033;-70
2020/12/19 03:58:26;;;;;;;36.23;20.53;;;;;;;2.74;87.96;101962.81;5037356;28;20459;-73
2020/12/19 04:00:51;;;;;;;38.23;21.43;;;;;;;2.91;87.73;101964.38;5017110;28;20479;-71
2020/12/19 04:03:17;;;;;;;33.17;18.83;;;;;;;3.12;86.70;101954.34;5031143;28;20021;-72
2020/12/19 04:05:42;;;;;;;32.57;19.50;;;;;;;3.31;85.80;101959.44;5033407;28;20022;-74
2020/12/19 04:08:07;;;;;;;29.65;18.65;;;;;;;3.54;84.59;101964.09;5020679;28;20044;-69
2020/12/19 04:10:33;;;;;;;29.98;18.05;;;;;;;3.68;84.41;101955.09;5047272;28;20487;-73
2020/12/19 04:12:58;;;;;;;30.48;19.50;;;;;;;3.62;83.06;101945.22;5039721;28;20166;-73
2020/12/19 04:15:24;;;;;;;31.83;19.35;;;;;;;3.68;83.82;101953.41;5039541;28;20055;-71
2020/12/19 04:17:51;;;;;;;34.38;20.38;;;;;;;3.50;83.84;101910.94;5047134;28;20037;-73
2020/12/19 04:20:17;;;;;;;37.45;21.80;;;;;;;3.88;83.12;101960.28;5040626;28;20031;-77
2020/12/19 04:22:43;;;;;;;33.75;21.65;;;;;;;4.03;82.55;101962.41;5035058;28;20410;-74
2020/12/19 04:25:11;;;;;;;36.08;22.50;;;;;;;4.00;82.32;101959.56;5028689;28;20025;-73
2020/12/19 04:27:41;;;;;;;33.40;21.33;;;;;;;4.08;82.15;101965.38;5045755;28;20032;-72
2020/12/19 04:30:09;;;;;;;36.30;22.10;;;;;;;4.13;81.87;101966.66;5033796;28;20037;-76
2020/12/19 04:32:35;;;;;;;37.85;23.05;;;;;;;4.16;81.75;101962.72;5048220;28;20036;-74
2020/12/19 04:35:01;;;;;;;34.10;22.23;;;;;;;4.19;81.52;101962.97;5040034;28;20475;-72
2020/12/19 04:37:27;;;;;;;35.50;22.38;;;;;;;4.29;81.21;101964.66;5039680;28;20059;-74
2020/12/19 04:39:52;;;;;;;33.45;20.33;;;;;;;4.29;81.26;101966.34;5068767;28;20029;-75
2020/12/19 04:42:20;;;;;;;35.67;22.30;;;;;;;4.27;81.09;101961.06;5058255;28;20470;-75
2020/12/19 04:44:46;;;;;;;39.05;24.23;;;;;;;4.20;81.18;101964.75;5070610;28;20505;-71
2020/12/19 04:47:13;;;;;;;34.78;23.48;;;;;;;4.27;81.26;101975.53;5072587;28;20032;-70
2020/12/19 04:49:38;;;;;;;36.40;22.45;;;;;;;4.13;80.91;101948.75;5066127;28;20028;-73
2020/12/19 04:52:04;;;;;;;38.88;25.02;;;;;;;4.16;81.34;101967.81;5066561;28;20028;-75
2020/12/19 04:54:30;;;;;;;36.72;21.92;;;;;;;4.03;82.13;101973.50;5074244;28;20033;-72
2020/12/19 04:56:55;;;;;;;39.35;23.83;;;;;;;3.87;82.94;101963.59;5058980;28;20028;-76
2020/12/19 04:59:21;;;;;;;35.42;22.58;;;;;;;3.85;83.44;101965.13;5066116;28;20477;-74
2020/12/19 05:01:46;;;;;;;39.20;22.80;;;;;;;3.86;83.46;101974.59;5064227;28;20098;-74
2020/12/19 05:04:13;;;;;;;38.72;24.02;;;;;;;3.95;83.37;101971.97;5075956;28;20460;-75
2020/12/19 05:06:38;;;;;;;34.42;22.13;;;;;;;4.03;83.32;101980.28;5077485;28;20025;-71
2020/12/19 05:09:04;;;;;;;35.05;21.65;;;;;;;4.15;82.70;101983.91;5074613;28;20028;-71
2020/12/19 05:11:29;;;;;;;38.30;24.00;;;;;;;4.21;82.67;101978.44;5069472;28;20117;-70
2020/12/19 05:13:55;;;;;;;37.95;23.40;;;;;;;4.20;82.06;101963.88;5073578;28;20025;-72
2020/12/19 05:16:20;;;;;;;40.20;25.40;;;;;;;4.31;81.94;101978.47;5073312;28;20504;-72
2020/12/19 05:18:46;;;;;;;35.30;22.13;;;;;;;4.35;81.68;101977.09;5069294;28;20093;-74
2020/12/19 05:21:13;;;;;;;39.53;23.80;;;;;;;4.34;81.70;101982.97;5071753;28;20064;-75
2020/12/19 05:23:41;;;;;;;35.28;22.00;;;;;;;4.34;81.70;101993.19;5076375;28;20367;-78
2020/12/19 05:26:13;;;;;;;34.78;22.40;;;;;;;4.36;81.69;101992.56;5066803;28;20020;-74
2020/12/19 05:28:41;;;;;;;37.17;23.15;;;;;;;4.35;81.60;101998.44;5065907;28;21794;-78
2020/12/19 05:31:07;;;;;;;35.35;22.00;;;;;;;4.38;81.69;101985.00;5066036;28;20099;-74
2020/12/19 05:33:38;;;;;;;68.57;49.67;;;;;;;4.35;81.56;101995.00;5066027;28;20094;-73
2020/12/19 05:36:05;;;;;;;77.43;55.15;;;;;;;4.21;81.63;101965.66;5053801;28;20021;-73
2020/12/19 05:38:36;;;;;;;58.20;40.65;;;;;;;4.42;81.75;101993.84;5070362;28;20087;-75
2020/12/19 05:41:02;;;;;;;47.33;27.95;;;;;;;4.32;81.92;101994.72;5073117;28;20543;-74
2020/12/19 05:43:27;;;;;;;41.90;26.38;;;;;;;4.41;81.82;102002.28;5055697;28;20028;-73
2020/12/19 05:45:53;;;;;;;43.35;28.95;;;;;;;4.47;81.45;102000.25;5073549;28;20042;-74
2020/12/19 05:48:18;;;;;;;57.42;43.13;;;;;;;4.46;81.38;102003.56;5055946;28;20111;-77
2020/12/19 05:50:44;;;;;;;73.53;55.30;;;;;;;4.40;81.79;101987.69;5073541;28;20458;-76
2020/12/19 05:53:10;;;;;;;58.17;45.88;;;;;;;4.47;81.41;102010.47;5072015;28;20020;-76
2020/12/19 05:55:36;;;;;;;73.38;54.40;;;;;;;4.47;81.62;102013.91;5073486;28;20063;-71
2020/12/19 05:58:04;;;;;;;93.82;78.38;;;;;;;4.52;81.12;102007.56;5073107;28;20021;-71
2020/12/19 06:00:30;;;;;;;199.02;129.98;;;;;;;4.48;80.87;101997.81;5073157;28;20498;-70
2020/12/19 06:02:57;;;;;;;69.40;44.20;;;;;;;4.68;80.65;102024.22;5051462;28;20036;-72
2020/12/19 06:05:23;;;;;;;408.23;165.18;;;;;;;4.74;80.40;102026.41;5063332;28;20028;-75
2020/12/19 06:07:49;;;;;;;48.78;30.17;;;;;;;4.70;80.06;102028.69;5053472;28;20025;-76
2020/12/19 06:10:16;;;;;;;37.90;22.60;;;;;;;4.67;80.19;102032.66;5051821;28;20453;-76
2020/12/19 06:12:51;;;;;;;36.60;23.70;;;;;;;4.62;80.41;102034.84;5067387;28;20031;-75
2020/12/19 06:15:27;;;;;;;44.97;30.15;;;;;;;4.61;80.50;102025.38;5073379;28;20035;-73
2020/12/19 06:18:00;;;;;;;52.55;35.60;;;;;;;4.66;80.30;102036.88;5052564;28;20052;-76
2020/12/19 06:20:29;;;;;;;42.35;26.73;;;;;;;4.42;79.89;101993.84;5055648;28;20074;-79
2020/12/19 06:22:55;;;;;;;45.97;29.88;;;;;;;4.65;79.97;102029.97;5054920;28;20032;-73
2020/12/19 06:25:40;;;;;;;47.30;30.30;;;;;;;4.68;80.13;102044.69;5072791;28;20037;-70
2020/12/19 06:28:05;;;;;;;45.92;30.02;;;;;;;4.70;80.12;102033.81;5073033;28;20089;-72
2020/12/19 06:30:31;;;;;;;48.95;34.20;;;;;;;4.69;80.10;102037.13;5055016;28;20024;-73
2020/12/19 06:33:11;;;;;;;57.08;39.85;;;;;;;4.61;80.16;102015.13;5072637;28;20037;-73
2020/12/19 06:35:36;;;;;;;47.63;29.90;;;;;;;4.53;80.34;102006.78;5041122;28;20028;-73
2020/12/19 06:38:02;;;;;;;42.00;27.60;;;;;;;4.67;80.22;102038.69;5072602;28;20049;-71
2020/12/19 06:40:37;;;;;;;40.65;26.52;;;;;;;4.80;80.48;102049.97;5072683;28;20054;-73
2020/12/19 06:43:13;;;;;;;38.38;25.10;;;;;;;4.93;79.93;102049.34;5072600;28;20028;-73
2020/12/19 06:45:40;;;;;;;39.22;25.02;;;;;;;4.90;79.71;102050.00;5072208;28;20052;-75
2020/12/19 06:48:34;;;;;;;43.78;24.98;;;;;;;4.89;79.64;102052.41;5054471;28;20035;-76
2020/12/19 06:50:59;;;;;;;42.03;26.58;;;;;;;4.86;80.07;102058.19;5071453;28;20031;-74
2020/12/19 06:53:25;;;;;;;44.15;29.02;;;;;;;4.92;79.47;102045.00;5072026;28;20029;-74
2020/12/19 06:55:51;;;;;;;52.33;32.55;;;;;;;4.94;79.19;102039.22;5072278;28;20074;-73
2020/12/19 06:58:31;;;;;;;42.08;28.60;;;;;;;4.99;79.18;102050.75;5054505;28;20028;-71
2020/12/19 07:00:57;;;;;;;46.38;29.63;;;;;;;5.02;78.65;102045.91;5071949;28;20028;-74
2020/12/19 07:03:40;;;;;;;42.03;27.45;;;;;;;5.09;78.38;102051.56;5072080;28;20028;-73
2020/12/19 07:06:09;;;;;;;44.20;28.23;;;;;;;5.18;77.80;102054.88;5072101;28;20063;-73
2020/12/19 07:08:35;;;;;;;43.05;27.88;;;;;;;5.18;78.13;102057.44;5072579;28;20028;-75
2020/12/19 07:11:00;;;;;;;41.50;26.25;;;;;;;5.19;78.47;102059.22;5051097;28;20479;-74
2020/12/19 07:13:51;;;;;;;41.90;27.83;;;;;;;5.08;78.47;102057.44;5050887;28;20055;-76
2020/12/19 07:17:03;;;;;;;47.33;30.10;;;;;;;5.07;78.71;102063.31;5068027;28;20028;-76
2020/12/19 07:19:28;;;;;;;44.33;29.17;;;;;;;5.12;78.36;102062.03;4970688;28;20030;-77
2020/12/19 07:21:58;;;;;;;43.78;28.45;;;;;;;5.01;78.84;102056.03;4970478;28;20501;-71
2020/12/19 07:24:24;;;;;;;47.88;29.38;;;;;;;5.00;79.09;102064.47;4970773;28;20133;-75
2020/12/19 07:26:51;;;;;;;49.13;30.27;;;;;;;5.03;79.37;102051.91;4970338;28;20041;-74
2020/12/19 07:29:19;;;;;;;46.42;28.98;;;;;;;5.05;78.74;102054.59;4970571;28;20058;-74
2020/12/19 07:31:47;;;;;;;47.58;29.35;;;;;;;5.10;78.72;102053.34;4954221;28;20031;-74
2020/12/19 07:34:14;;;;;;;46.65;28.77;;;;;;;5.18;78.38;102060.00;4970698;28;20042;-74
2020/12/19 07:36:42;;;;;;;54.25;35.95;;;;;;;4.94;78.77;102020.44;4970331;28;20150;-72
2020/12/19 07:39:10;;;;;;;46.97;31.55;;;;;;;5.08;78.44;102055.75;4970204;28;20442;-71
2020/12/19 07:41:36;;;;;;;43.58;28.60;;;;;;;5.09;78.21;102052.44;4970190;28;20181;-74
2020/12/19 07:44:12;;;;;;;47.20;30.50;;;;;;;5.11;78.31;102061.16;4970558;28;20049;-77
2020/12/19 07:46:58;;;;;;;43.35;27.20;;;;;;;5.17;77.72;102055.63;4970478;28;20199;-74
2020/12/19 07:49:28;;;;;;;47.05;29.63;;;;;;;5.15;78.28;102054.63;4962908;28;20075;-73
2020/12/19 07:52:04;;;;;;;41.83;27.20;;;;;;;5.19;77.67;102052.44;4969904;28;20528;-74
2020/12/19 07:54:29;;;;;;;40.58;26.00;;;;;;;5.24;76.84;102060.50;4970466;28;20039;-75
2020/12/19 07:56:56;;;;;;;37.55;24.33;;;;;;;5.25;76.98;102052.06;5041634;28;20036;-74
2020/12/19 07:59:21;;;;;;;46.05;28.40;;;;;;;5.24;76.97;102046.81;5071194;28;20486;-74
2020/12/19 08:01:47;;;;;;;44.83;26.88;;;;;;;5.28;76.78;102051.44;5071431;28;20024;-75
2020/12/19 08:04:12;;;;;;;40.47;26.40;;;;;;;5.30;77.15;102053.34;5048806;28;20033;-73
2020/12/19 08:06:42;;;;;;;36.47;24.88;;;;;;;5.22;76.92;102022.75;5067550;28;20043;-78
2020/12/19 08:09:08;;;;;;;39.70;25.55;;;;;;;5.49;76.71;102057.44;5071127;28;20604;-74
2020/12/19 08:11:43;;;;;;;40.28;26.75;;;;;;;5.56;76.44;102063.97;5071123;28;20103;-74
2020/12/19 08:14:08;;;;;;;44.33;29.83;;;;;;;5.57;76.71;102068.31;5071069;28;20033;-77
2020/12/19 08:16:34;;;;;;;41.40;25.50;;;;;;;5.63;76.16;102059.50;5070985;28;20032;-75
2020/12/19 08:19:00;;;;;;;38.45;25.88;;;;;;;5.63;76.16;102056.03;5071156;28;20025;-76
2020/12/19 08:21:26;;;;;;;34.90;23.77;;;;;;;5.67;76.14;102058.97;5071068;28;20024;-73
2020/12/19 08:23:51;;;;;;;35.75;23.73;;;;;;;5.71;75.71;102065.25;5049732;28;20032;-73
2020/12/19 08:26:19;;;;;;;34.03;22.02;;;;;;;5.63;76.24;102059.50;5065071;28;20103;-72
2020/12/19 08:28:44;;;;;;;33.97;22.05;;;;;;;5.49;76.29;102048.09;5071025;28;20036;-74
2020/12/19 08:31:18;;;;;;;38.20;23.05;;;;;;;5.53;76.65;102059.47;5071109;28;20456;-73
2020/12/19 08:33:49;;;;;;;43.13;25.42;;;;;;;5.42;77.56;102033.00;5070858;28;20025;-74
2020/12/19 08:36:15;;;;;;;36.38;23.08;;;;;;;5.61;77.32;102061.03;5050179;28;20399;-74
2020/12/19 08:38:40;;;;;;;35.70;23.60;;;;;;;5.66;76.69;102063.97;5068877;28;20052;-74
2020/12/19 08:41:18;;;;;;;39.90;25.38;;;;;;;5.66;77.10;102056.28;5067714;28;20024;-71
2020/12/19 08:43:43;;;;;;;34.63;24.88;;;;;;;5.60;76.67;102054.09;5070737;28;20031;-71
2020/12/19 08:46:12;;;;;;;37.67;24.85;;;;;;;5.61;77.28;102026.84;5070886;28;20099;-76
2020/12/19 08:48:38;;;;;;;45.25;29.67;;;;;;;5.73;76.96;102037.19;5052856;28;20123;-74
2020/12/19 08:51:14;;;;;;;50.17;33.33;;;;;;;5.76;76.15;102024.63;5052921;28;20027;-74
2020/12/19 08:53:40;;;;;;;41.90;27.02;;;;;;;5.64;76.04;102009.13;5070729;28;20024;-73
2020/12/19 08:56:15;;;;;;;45.20;31.23;;;;;;;5.76;76.02;102030.63;5070885;28;20025;-76
2020/12/19 08:58:41;;;;;;;37.83;25.20;;;;;;;5.76;76.30;102022.94;5070479;28;20038;-75
2020/12/19 09:01:15;;;;;;;36.30;25.92;;;;;;;5.72;75.82;102008.09;5070708;28;20024;-74
2020/12/19 09:03:42;;;;;;;36.95;24.23;;;;;;;5.83;75.63;102016.66;5049482;28;20022;-75
2020/12/19 09:06:12;;;;;;;38.20;25.75;;;;;;;5.88;75.63;102019.59;5066726;28;20024;-74
2020/12/19 09:08:39;;;;;;;44.05;27.20;;;;;;;5.92;75.59;102008.81;5070910;28;20028;-71
2020/12/19 09:11:20;;;;;;;41.45;26.60;;;;;;;5.86;76.10;102006.66;5070200;28;20036;-73
2020/12/19 09:13:46;;;;;;;38.20;25.65;;;;;;;5.90;75.90;102005.25;5070781;28;20028;-69
2020/12/19 09:16:12;;;;;;;41.78;27.70;;;;;;;5.92;76.00;102006.25;5072613;28;20033;-74
2020/12/19 09:18:39;;;;;;;41.50;27.13;;;;;;;5.44;76.71;101934.09;5053247;28;20368;-75
2020/12/19 09:21:07;;;;;;;43.55;27.42;;;;;;;5.87;76.38;101997.28;5067479;28;20036;-72
2020/12/19 09:23:33;;;;;;;41.88;25.35;;;;;;;5.90;76.17;101997.56;5074209;28;20024;-73
2020/12/19 09:26:01;;;;;;;41.70;26.23;;;;;;;5.81;76.77;102007.94;5074237;28;20048;-71
2020/12/19 09:28:27;;;;;;;42.75;27.30;;;;;;;5.70;77.47;102001.06;5074022;28;20040;-72
2020/12/19 09:30:54;;;;;;;42.55;28.08;;;;;;;5.60;77.76;102000.31;5074312;28;20021;-68
2020/12/19 09:33:20;;;;;;;46.63;29.50;;;;;;;5.47;77.92;101974.44;5074432;28;20036;-70
2020/12/19 09:35:47;;;;;;;48.05;27.92;;;;;;;5.73;77.73;102003.88;5073877;28;20025;-70
2020/12/19 09:38:13;;;;;;;41.38;29.45;;;;;;;5.78;77.21;102000.91;5073193;28;20033;-71
2020/12/19 09:40:38;;;;;;;42.22;27.73;;;;;;;5.79;77.36;101989.00;5072425;28;20035;-68
2020/12/19 09:43:05;;;;;;;39.50;26.83;;;;;;;5.82;76.61;101996.94;5072753;28;20028;-70
2020/12/19 09:45:32;;;;;;;42.47;28.27;;;;;;;5.77;76.32;101995.66;5072004;28;20445;-73
2020/12/19 09:47:58;;;;;;;41.47;27.67;;;;;;;5.64;76.07;101974.16;5072920;28;20035;-68
2020/12/19 09:50:25;;;;;;;43.17;28.25;;;;;;;5.78;75.97;101976.94;5073280;28;20024;-71
2020/12/19 09:52:50;;;;;;;39.90;25.23;;;;;;;5.91;75.53;101989.09;5072927;28;20029;-69
2020/12/19 09:55:17;;;;;;;42.10;27.02;;;;;;;5.98;75.94;101986.22;5072948;28;20441;-71
2020/12/19 09:57:42;;;;;;;43.58;25.10;;;;;;;5.92;75.81;101976.38;5073123;28;20107;-73
2020/12/19 10:00:10;;;;;;;39.22;24.65;;;;;;;5.78;76.33;101974.38;5072829;28;20132;-68
2020/12/19 10:02:36;;;;;;;45.97;28.73;;;;;;;5.89;76.10;101980.38;5072988;28;20482;-73
2020/12/19 10:05:01;;;;;;;40.47;27.38;;;;;;;5.82;76.01;101951.69;5071405;28;20071;-70
2020/12/19 10:07:27;;;;;;;42.80;27.40;;;;;;;5.85;76.12;101970.66;5071030;28;20068;-70
2020/12/19 10:09:52;;;;;;;39.40;25.00;;;;;;;5.82;76.00;101966.19;5072674;28;20032;-68
2020/12/19 10:12:18;;;;;;;39.05;26.45;;;;;;;5.95;75.69;101980.88;5054962;28;20036;-69
2020/12/19 10:14:43;;;;;;;35.53;23.73;;;;;;;5.72;75.50;101927.75;5072840;28;20025;-68
2020/12/19 10:17:09;;;;;;;37.80;24.48;;;;;;;5.85;75.70;101962.97;5072636;28;20024;-71
2020/12/19 10:19:35;;;;;;;39.90;24.80;;;;;;;5.86;75.89;101965.66;5070721;28;20025;-72
2020/12/19 10:22:00;;;;;;;35.60;23.58;;;;;;;5.90;75.74;101959.97;5072401;28;20024;-68
2020/12/19 10:24:27;;;;;;;38.95;26.02;;;;;;;5.94;76.22;101959.47;5072989;28;20048;-69
2020/12/19 10:26:52;;;;;;;41.00;26.58;;;;;;;5.97;76.04;101959.72;5052236;28;20032;-71
2020/12/19 10:29:18;;;;;;;43.10;27.67;;;;;;;6.09;75.45;101959.84;5073139;28;20478;-68
2020/12/19 10:31:43;;;;;;;38.60;25.40;;;;;;;6.17;75.27;101957.88;5072729;28;20039;-71
2020/12/19 10:34:09;;;;;;;35.25;23.70;;;;;;;6.21;75.09;101949.63;5071717;28;20028;-72
2020/12/19 10:36:35;;;;;;;35.10;25.67;;;;;;;6.28;75.16;101948.44;5054652;28;20028;-68
2020/12/19 10:39:00;;;;;;;37.15;24.23;;;;;;;6.31;74.78;101935.84;5072884;28;20732;-68
2020/12/19 10:41:27;;;;;;;38.75;26.60;;;;;;;6.37;74.73;101932.84;5066083;28;20112;-72
2020/12/19 10:43:52;;;;;;;37.88;26.17;;;;;;;6.22;74.47;101923.22;5057427;28;20055;-74
2020/12/19 10:46:26;;;;;;;34.20;22.38;;;;;;;6.11;74.81;101937.75;5031213;28;20131;-75
2020/12/19 10:48:52;;;;;;;34.00;21.85;;;;;;;6.06;75.01;101935.63;5050721;28;20032;-73
2020/12/19 10:51:26;;;;;;;39.08;25.30;;;;;;;6.23;74.41;101930.13;5053686;28;20118;-73
2020/12/19 10:53:51;;;;;;;35.15;22.80;;;;;;;6.28;74.83;101933.03;5053739;28;20041;-73
2020/12/19 10:56:17;;;;;;;39.92;23.42;;;;;;;6.32;74.86;101925.72;5053052;28;20427;-75
2020/12/19 10:58:43;;;;;;;34.22;22.85;;;;;;;6.37;74.29;101920.03;5053197;28;20132;-75
2020/12/19 11:01:08;;;;;;;41.92;28.50;;;;;;;6.27;74.68;101921.91;5054014;28;20103;-75
2020/12/19 11:03:34;;;;;;;45.55;27.75;;;;;;;6.36;75.41;101915.72;5053648;28;20094;-74
2020/12/19 11:05:59;;;;;;;36.53;24.60;;;;;;;6.35;74.25;101911.34;5054105;28;20035;-76
2020/12/19 11:08:25;;;;;;;33.53;22.63;;;;;;;6.35;74.07;101924.16;5056136;28;20031;-76
2020/12/19 11:10:50;;;;;;;31.63;20.80;;;;;;;6.41;73.75;101922.97;5064136;28;20029;-73
2020/12/19 11:13:16;;;;;;;29.83;19.92;;;;;;;6.47;73.16;101917.41;5054175;28;20082;-75
2020/12/19 11:15:41;;;;;;;36.35;23.15;;;;;;;6.56;73.07;101923.25;5051510;28;20036;-77
2020/12/19 11:18:07;;;;;;;33.03;21.38;;;;;;;6.44;72.74;101895.00;5053782;28;20017;-75